createdAt,value
2023-12-08T00:00:35.821Z,101242.00
2023-12-08T00:03:14.792Z,101242.09
2023-12-08T00:06:02.171Z,101234.16
2023-12-08T00:08:30.974Z,101235.94
2023-12-08T00:10:58.277Z,101235.09
2023-12-08T00:13:28.531Z,101242.81
2023-12-08T00:15:55.739Z,101241.22
2023-12-08T00:18:24.443Z,101239.41
2023-12-08T00:20:51.861Z,101235.16
2023-12-08T00:23:19.138Z,101232.56
2023-12-08T00:25:48.336Z,101233.47
2023-12-08T00:28:17.641Z,101236.81
2023-12-08T00:30:44.768Z,101244.63
2023-12-08T00:33:16.437Z,101233.47
2023-12-08T00:35:43.798Z,101232.59
2023-12-08T00:38:11.059Z,101210.03
2023-12-08T00:40:38.339Z,101214.47
2023-12-08T00:43:10.568Z,101222.25
2023-12-08T00:45:42.033Z,101216.16
2023-12-08T00:48:29.464Z,101201.47
2023-12-08T00:50:56.821Z,101184.06
2023-12-08T00:53:24.969Z,101199.75
2023-12-08T00:55:52.363Z,101188.56
2023-12-08T00:58:21.048Z,101192.03
2023-12-08T01:00:48.486Z,101200.56
2023-12-08T01:03:16.116Z,101201.53
2023-12-08T01:05:43.361Z,101192.94
2023-12-08T01:08:10.881Z,101193.78
2023-12-08T01:10:38.312Z,101179.88
2023-12-08T01:13:09.855Z,101189.47
2023-12-08T01:15:38.375Z,101180.88
2023-12-08T01:18:05.845Z,101173.84
2023-12-08T01:20:36.926Z,101176.50
2023-12-08T01:23:04.145Z,101172.94
2023-12-08T01:25:33.507Z,101181.69
2023-12-08T01:28:00.768Z,101152.91
2023-12-08T01:30:28.186Z,101195.59
2023-12-08T01:32:57.024Z,101192.09
2023-12-08T01:35:24.239Z,101192.09
2023-12-08T01:37:51.821Z,101173.03
2023-12-08T01:40:19.286Z,101161.63
2023-12-08T01:42:46.488Z,101189.44
2023-12-08T01:45:14.171Z,101186.88
2023-12-08T01:47:43.142Z,101178.19
2023-12-08T01:50:14.074Z,101190.41
2023-12-08T01:52:45.805Z,101190.31
2023-12-08T01:55:13.407Z,101204.16
2023-12-08T01:57:41.364Z,101200.69
2023-12-08T02:00:12.267Z,101194.69
2023-12-08T02:02:39.944Z,101184.06
2023-12-08T02:05:07.870Z,101190.34
2023-12-08T02:07:37.097Z,101156.44
2023-12-08T02:10:05.164Z,101183.47
2023-12-08T02:12:32.927Z,101187.75
2023-12-08T02:15:00.182Z,101180.81
2023-12-08T02:17:33.370Z,101191.22
2023-12-08T02:20:01.539Z,101189.53
2023-12-08T02:22:28.883Z,101179.97
2023-12-08T02:24:57.567Z,101179.94
2023-12-08T02:27:26.143Z,101177.34
2023-12-08T02:29:53.500Z,101180.81
2023-12-08T02:32:26.928Z,101182.56
2023-12-08T02:34:54.444Z,101174.81
2023-12-08T02:37:22.692Z,101184.28
2023-12-08T02:39:50.704Z,101189.53
2023-12-08T02:42:20.163Z,101198.16
2023-12-08T02:44:47.705Z,101124.09
2023-12-08T02:47:15.008Z,101199.00
2023-12-08T02:49:42.102Z,101200.59
2023-12-08T02:52:13.908Z,101217.09
2023-12-08T02:54:40.814Z,101211.06
2023-12-08T02:57:10.585Z,101213.56
2023-12-08T02:59:39.476Z,101214.47
2023-12-08T03:02:08.572Z,101205.81
2023-12-08T03:04:35.789Z,101191.88
2023-12-08T03:07:03.441Z,101192.97
2023-12-08T03:09:30.725Z,101202.38
2023-12-08T03:11:58.007Z,101199.81
2023-12-08T03:14:25.744Z,101198.97
2023-12-08T03:16:54.450Z,101184.25
2023-12-08T03:19:21.691Z,101185.13
2023-12-08T03:21:49.048Z,101188.56
2023-12-08T03:24:25.190Z,101185.09
2023-12-08T03:26:52.505Z,101196.38
2023-12-08T03:29:19.783Z,101181.66
2023-12-08T03:31:55.747Z,101177.31
2023-12-08T03:34:44.424Z,101178.22
2023-12-08T03:37:11.649Z,101188.63
2023-12-08T03:39:39.105Z,101192.06
2023-12-08T03:42:06.415Z,101180.78
2023-12-08T03:44:33.641Z,101190.31
2023-12-08T03:47:01.241Z,101201.53
2023-12-08T03:49:28.743Z,101198.97
2023-12-08T03:52:01.990Z,101197.28
2023-12-08T03:54:33.836Z,101187.72
2023-12-08T03:57:00.684Z,101186.91
2023-12-08T03:59:28.108Z,101186.03
2023-12-08T04:01:55.390Z,101177.47
2023-12-08T04:04:26.210Z,101177.50
2023-12-08T04:06:55.343Z,101183.50
2023-12-08T04:09:26.207Z,101174.81
2023-12-08T04:11:55.117Z,101190.41
2023-12-08T04:14:22.933Z,101194.72
2023-12-08T04:16:51.666Z,101198.13
2023-12-08T04:19:19.462Z,101206.81
2023-12-08T04:21:47.254Z,101202.47
2023-12-08T04:24:15.166Z,101199.06
2023-12-08T04:26:46.348Z,101192.16
2023-12-08T04:29:13.898Z,101194.72
2023-12-08T04:31:41.063Z,101192.16
2023-12-08T04:34:08.588Z,101141.72
2023-12-08T04:36:36.086Z,101131.19
2023-12-08T04:39:03.671Z,101193.81
2023-12-08T04:41:35.496Z,101150.31
2023-12-08T04:44:04.859Z,101201.66
2023-12-08T04:46:32.089Z,101195.59
2023-12-08T04:48:59.523Z,101175.59
2023-12-08T04:51:31.768Z,101195.56
2023-12-08T04:53:59.426Z,101199.06
2023-12-08T04:56:26.970Z,101191.91
2023-12-08T04:58:58.096Z,101212.81
2023-12-08T05:01:50.563Z,101224.03
2023-12-08T05:04:18.160Z,101169.31
2023-12-08T05:06:45.682Z,101207.66
2023-12-08T05:09:13.046Z,101197.28
2023-12-08T05:11:40.588Z,101219.81
2023-12-08T05:14:08.172Z,101181.47
2023-12-08T05:16:35.584Z,101215.41
2023-12-08T05:19:04.459Z,101218.06
2023-12-08T05:21:32.161Z,101169.34
2023-12-08T05:23:59.580Z,101219.03
2023-12-08T05:26:27.165Z,101210.31
2023-12-08T05:28:55.446Z,101210.28
2023-12-08T05:31:22.985Z,101153.59
2023-12-08T05:33:50.540Z,101220.66
2023-12-08T05:36:19.238Z,101215.53
2023-12-08T05:38:46.644Z,101219.81
2023-12-08T05:41:14.022Z,101208.47
2023-12-08T05:43:41.335Z,101205.13
2023-12-08T05:46:08.586Z,101212.09
2023-12-08T05:48:36.072Z,101211.28
2023-12-08T05:51:03.904Z,101219.00
2023-12-08T05:53:38.469Z,101226.78
2023-12-08T05:56:08.301Z,101228.50
2023-12-08T05:58:37.126Z,101220.75
2023-12-08T06:01:04.876Z,101223.31
2023-12-08T06:03:32.178Z,101223.34
2023-12-08T06:05:59.534Z,101231.09
2023-12-08T06:08:26.738Z,101226.78
2023-12-08T06:10:55.604Z,101227.66
2023-12-08T06:13:22.892Z,101235.44
2023-12-08T06:15:50.198Z,101236.25
2023-12-08T06:18:17.918Z,101236.31
2023-12-08T06:20:45.185Z,101234.56
2023-12-08T06:23:12.388Z,101225.94
2023-12-08T06:25:39.872Z,101228.59
2023-12-08T06:28:08.615Z,101226.84
2023-12-08T06:30:35.937Z,101233.72
2023-12-08T06:33:03.318Z,101221.69
2023-12-08T06:35:30.873Z,101226.81
2023-12-08T06:37:58.155Z,101220.94
2023-12-08T06:40:25.416Z,101226.09
2023-12-08T06:42:52.707Z,101222.59
2023-12-08T06:45:23.447Z,101219.13
2023-12-08T06:47:50.783Z,101216.56
2023-12-08T06:50:17.968Z,101224.38
2023-12-08T06:52:45.417Z,101217.34
2023-12-08T06:55:12.729Z,101228.69
2023-12-08T06:57:40.041Z,101240.81
2023-12-08T07:00:08.693Z,101241.78
2023-12-08T07:02:38.032Z,101241.75
2023-12-08T07:05:06.655Z,101250.38
2023-12-08T07:07:33.993Z,101245.22
2023-12-08T07:10:01.430Z,101241.78
2023-12-08T07:12:30.885Z,101235.63
2023-12-08T07:14:58.157Z,101246.13
2023-12-08T07:17:25.760Z,101245.34
2023-12-08T07:19:54.671Z,101241.91
2023-12-08T07:22:21.942Z,101248.13
2023-12-08T07:24:49.407Z,101246.47
2023-12-08T07:27:16.622Z,101241.31
2023-12-08T07:29:43.998Z,101226.59
2023-12-08T07:32:11.958Z,101245.81
2023-12-08T07:34:39.126Z,101244.97
2023-12-08T07:37:07.767Z,101246.63
2023-12-08T07:39:35.315Z,101240.72
2023-12-08T07:42:02.748Z,101247.53
2023-12-08T07:44:30.167Z,101243.34
2023-12-08T07:47:02.967Z,101244.25
2023-12-08T07:49:30.402Z,101231.19
2023-12-08T07:51:57.701Z,101239.88
2023-12-08T07:54:26.418Z,101243.41
2023-12-08T07:56:53.747Z,101239.88
2023-12-08T07:59:21.386Z,101250.19
2023-12-08T08:01:48.738Z,101248.56
2023-12-08T08:04:16.004Z,101252.66
2023-12-08T08:06:43.969Z,101252.84
2023-12-08T08:09:11.456Z,101249.31
2023-12-08T08:11:40.332Z,101253.66
2023-12-08T08:14:09.234Z,101251.72
2023-12-08T08:16:36.849Z,101261.34
2023-12-08T08:19:04.246Z,101250.13
2023-12-08T08:21:35.893Z,101249.22
2023-12-08T08:24:07.486Z,101244.94
2023-12-08T08:26:34.964Z,101249.25
2023-12-08T08:29:03.514Z,101253.69
2023-12-08T08:31:31.044Z,101241.47
2023-12-08T08:33:58.302Z,101246.66
2023-12-08T08:36:25.569Z,101251.00
2023-12-08T08:38:53.244Z,101250.94
2023-12-08T08:44:03.091Z,101249.19
2023-12-08T08:46:30.430Z,101253.50
2023-12-08T08:49:00.084Z,101237.19
2023-12-08T08:51:27.531Z,101246.66
2023-12-08T08:53:55.000Z,101240.69
2023-12-08T08:56:24.778Z,101248.50
2023-12-08T08:58:54.051Z,101236.41
2023-12-08T09:01:22.842Z,101243.22
2023-12-08T09:03:51.058Z,101237.16
2023-12-08T09:06:18.825Z,101233.75
2023-12-08T09:08:47.879Z,101235.38
2023-12-08T09:11:15.861Z,101230.25
2023-12-08T09:13:43.343Z,101238.09
2023-12-08T09:16:10.544Z,101243.25
2023-12-08T09:18:41.409Z,101224.16
2023-12-08T09:21:09.140Z,101234.63
2023-12-08T09:23:36.475Z,101232.88
2023-12-08T09:26:04.122Z,101238.88
2023-12-08T09:28:35.143Z,101229.44
2023-12-08T09:33:46.925Z,101220.03
2023-12-08T09:36:14.946Z,101220.94
2023-12-08T09:38:42.383Z,101221.03
2023-12-08T09:41:14.123Z,101204.38
2023-12-08T09:43:49.943Z,101210.50
2023-12-08T09:46:19.075Z,101216.56
2023-12-08T09:48:49.611Z,101213.13
2023-12-08T09:51:18.672Z,101217.38
2023-12-08T09:53:46.138Z,101224.13
2023-12-08T09:56:14.883Z,101212.03
2023-12-08T09:58:46.778Z,101217.28
2023-12-08T10:01:14.795Z,101200.84
2023-12-08T10:03:42.537Z,101218.19
2023-12-08T10:06:24.290Z,101225.06
2023-12-08T10:08:52.114Z,101217.25
2023-12-08T10:11:19.443Z,101215.59
2023-12-08T10:13:47.407Z,101225.97
2023-12-08T10:16:15.090Z,101210.38
2023-12-08T10:18:42.569Z,101202.59
2023-12-08T10:21:17.846Z,101217.44
2023-12-08T10:23:59.907Z,101214.88
2023-12-08T10:26:28.172Z,101219.28
2023-12-08T10:28:57.762Z,101215.13
2023-12-08T10:31:29.589Z,101216.13
2023-12-08T10:34:05.981Z,101210.81
2023-12-08T10:36:37.598Z,101216.84
2023-12-08T10:39:05.473Z,101208.31
2023-12-08T10:41:34.310Z,101218.66
2023-12-08T10:44:03.491Z,101197.66
2023-12-08T10:46:32.159Z,101210.75
2023-12-08T10:49:04.461Z,101216.81
2023-12-08T10:51:32.667Z,101224.72
2023-12-08T10:54:01.805Z,101219.38
2023-12-08T10:56:29.453Z,101221.22
2023-12-08T10:59:02.925Z,101214.22
2023-12-08T11:01:33.900Z,101227.22
2023-12-08T11:04:06.879Z,101217.63
2023-12-08T11:06:35.645Z,101222.91
2023-12-08T11:09:08.307Z,101216.78
2023-12-08T11:11:39.231Z,101212.34
2023-12-08T11:14:14.319Z,101209.75
2023-12-08T11:16:49.013Z,101210.66
2023-12-08T11:19:18.987Z,101160.97
2023-12-08T11:21:47.829Z,101208.97
2023-12-08T11:24:20.979Z,101212.47
2023-12-08T11:26:54.232Z,101163.81
2023-12-08T11:29:30.170Z,101195.19
2023-12-08T11:32:02.274Z,101192.66
2023-12-08T11:34:36.207Z,101206.69
2023-12-08T11:37:05.216Z,101195.28
2023-12-08T11:39:41.663Z,101192.69
2023-12-08T11:42:10.846Z,101202.34
2023-12-08T11:44:40.269Z,101197.06
2023-12-08T11:47:08.573Z,101190.13
2023-12-08T11:49:37.334Z,101188.31
2023-12-08T11:52:09.744Z,101184.97
2023-12-08T11:55:07.434Z,101198.84
2023-12-08T11:57:43.941Z,101184.00
2023-12-08T12:00:12.479Z,101184.06
2023-12-08T12:02:44.769Z,101198.06
2023-12-08T12:05:12.234Z,101212.66
2023-12-08T12:07:40.625Z,101206.63
2023-12-08T12:10:11.056Z,101211.78
2023-12-08T12:12:46.675Z,101177.78
2023-12-08T12:15:17.689Z,101161.34
2023-12-08T12:17:45.872Z,101151.72
2023-12-08T12:20:13.840Z,101195.28
2023-12-08T12:22:41.177Z,101203.06
2023-12-08T12:25:10.912Z,101195.16
2023-12-08T12:27:40.628Z,101205.66
2023-12-08T12:30:09.200Z,101195.06
2023-12-08T12:32:37.472Z,101189.91
2023-12-08T12:35:06.765Z,101202.06
2023-12-08T12:37:34.989Z,101159.41
2023-12-08T12:40:02.998Z,101213.34
2023-12-08T12:42:39.211Z,101218.59
2023-12-08T12:45:08.449Z,101148.88
2023-12-08T12:47:35.890Z,101192.22
2023-12-08T12:50:06.819Z,101228.84
2023-12-08T12:53:03.326Z,101227.84
2023-12-08T12:55:30.775Z,101228.81
2023-12-08T12:57:59.623Z,101231.38
2023-12-08T13:00:33.913Z,101232.19
2023-12-08T13:03:09.225Z,101242.53
2023-12-08T13:05:45.374Z,101242.50
2023-12-08T13:08:14.233Z,101207.63
2023-12-08T13:10:44.312Z,101235.44
2023-12-08T13:13:13.730Z,101227.63
2023-12-08T13:15:42.505Z,101231.91
2023-12-08T13:18:10.783Z,101238.13
2023-12-08T13:20:39.037Z,101242.28
2023-12-08T13:23:08.616Z,101229.09
2023-12-08T13:25:36.859Z,101237.03
2023-12-08T13:28:04.476Z,101251.78
2023-12-08T13:30:33.806Z,101196.88
2023-12-08T13:33:04.644Z,101239.66
2023-12-08T13:35:34.521Z,101228.25
2023-12-08T13:38:01.812Z,101247.34
2023-12-08T13:40:29.091Z,101256.00
2023-12-08T13:42:56.495Z,101245.56
2023-12-08T13:45:27.681Z,101254.22
2023-12-08T13:47:57.098Z,101246.22
2023-12-08T13:50:24.699Z,101260.31
2023-12-08T13:52:52.004Z,101251.59
2023-12-08T13:55:19.719Z,101271.47
2023-12-08T13:57:47.286Z,101257.63
2023-12-08T14:00:16.185Z,101274.16
2023-12-08T14:02:44.790Z,101268.91
2023-12-08T14:05:14.093Z,101284.34
2023-12-08T14:07:41.601Z,101269.66
2023-12-08T14:10:09.983Z,101272.25
2023-12-08T14:12:37.579Z,101246.09
2023-12-08T14:15:08.435Z,101272.94
2023-12-08T14:17:36.358Z,101268.66
2023-12-08T14:20:08.882Z,101273.88
2023-12-08T14:22:38.154Z,101275.56
2023-12-08T14:25:06.434Z,101198.94
2023-12-08T14:27:37.640Z,101270.41
2023-12-08T14:30:09.364Z,101278.97
2023-12-08T14:32:40.714Z,101288.56
2023-12-08T14:35:15.288Z,101282.31
2023-12-08T14:37:53.006Z,101285.91
2023-12-08T14:40:20.965Z,101276.34
2023-12-08T14:42:48.923Z,101290.25
2023-12-08T14:45:16.682Z,101278.94
2023-12-08T14:47:46.488Z,101281.47
2023-12-08T14:50:18.726Z,101284.09
2023-12-08T14:53:07.576Z,101245.66
2023-12-08T14:55:35.516Z,101297.09
2023-12-08T14:58:03.040Z,101251.66
2023-12-08T15:00:30.791Z,101296.13
2023-12-08T15:03:00.556Z,101240.47
2023-12-08T15:05:28.213Z,101289.28
2023-12-08T15:07:55.796Z,101297.09
2023-12-08T15:10:24.688Z,101299.63
2023-12-08T15:12:52.437Z,101299.59
2023-12-08T15:15:35.027Z,101298.00
2023-12-08T15:20:55.246Z,101253.38
2023-12-08T15:23:22.790Z,101256.03
2023-12-08T15:25:51.428Z,101253.47
2023-12-08T15:28:18.955Z,101306.47
2023-12-08T15:30:46.308Z,101310.81
2023-12-08T15:33:17.635Z,101309.97
2023-12-08T15:35:45.774Z,101315.22
2023-12-08T15:38:13.895Z,101320.38
2023-12-08T15:40:43.396Z,101316.91
2023-12-08T15:43:12.271Z,101266.38
2023-12-08T15:45:39.537Z,101317.78
2023-12-08T15:48:11.493Z,101307.13
2023-12-08T15:50:38.847Z,101318.63
2023-12-08T15:53:06.348Z,101324.56
2023-12-08T15:55:33.767Z,101327.19
2023-12-08T15:58:01.403Z,101334.94
2023-12-08T16:00:32.137Z,101340.13
2023-12-08T16:02:59.867Z,101341.00
2023-12-08T16:05:27.102Z,101327.94
2023-12-08T16:07:54.485Z,101328.81
2023-12-08T16:10:24.447Z,101332.38
2023-12-08T16:12:56.647Z,101332.41
2023-12-08T16:15:24.284Z,101340.16
2023-12-08T16:17:57.029Z,101330.66
2023-12-08T16:20:24.714Z,101322.00
2023-12-08T16:23:01.387Z,101269.56
2023-12-08T16:25:29.184Z,101330.56
2023-12-08T16:27:56.540Z,101335.72
2023-12-08T16:30:23.991Z,101320.22
2023-12-08T16:32:53.735Z,101313.22
2023-12-08T16:35:22.392Z,101324.63
2023-12-08T16:37:52.883Z,101327.13
2023-12-08T16:40:20.275Z,101328.81
2023-12-08T16:42:47.453Z,101332.31
2023-12-08T16:45:14.959Z,101310.53
2023-12-08T16:47:42.920Z,101300.13
2023-12-08T16:50:14.822Z,101320.03
2023-12-08T16:52:43.934Z,101319.25
2023-12-08T16:55:12.474Z,101314.13
2023-12-08T16:57:40.121Z,101317.50
2023-12-08T17:00:09.643Z,101307.19
2023-12-08T17:02:37.082Z,101298.50
2023-12-08T17:05:07.572Z,101308.00
2023-12-08T17:07:36.971Z,101312.34
2023-12-08T17:10:07.481Z,101295.97
2023-12-08T17:12:35.081Z,101302.03
2023-12-08T17:15:07.446Z,101293.25
2023-12-08T17:17:35.768Z,101299.44
2023-12-08T17:20:05.950Z,101292.44
2023-12-08T17:22:34.056Z,101254.06
2023-12-08T17:25:08.672Z,101308.06
2023-12-08T17:27:36.556Z,101257.50
2023-12-08T17:30:04.288Z,101321.03
2023-12-08T17:32:32.929Z,101318.28
2023-12-08T17:35:05.386Z,101298.38
2023-12-08T17:37:36.839Z,101313.19
2023-12-08T17:40:07.338Z,101324.38
2023-12-08T17:42:36.036Z,101318.41
2023-12-08T17:45:04.130Z,101329.63
2023-12-08T17:47:33.113Z,101262.47
2023-12-08T17:50:00.823Z,101321.84
2023-12-08T17:52:29.297Z,101327.06
2023-12-08T17:54:56.693Z,101327.09
2023-12-08T17:57:25.879Z,101326.19
2023-12-08T17:59:53.595Z,101321.94
2023-12-08T18:02:20.870Z,101295.47
2023-12-08T18:04:52.123Z,101326.22
2023-12-08T18:07:19.875Z,101346.91
2023-12-08T18:09:48.390Z,101346.06
2023-12-08T18:12:15.815Z,101333.03
2023-12-08T18:14:44.720Z,101343.47
2023-12-08T18:17:16.322Z,101347.81
2023-12-08T18:19:47.873Z,101340.97
2023-12-08T18:22:15.509Z,101346.94
2023-12-08T18:24:43.054Z,101344.31
2023-12-08T18:27:14.234Z,101337.34
2023-12-08T18:29:48.651Z,101334.84
2023-12-08T18:32:16.040Z,101347.75
2023-12-08T18:34:43.591Z,101350.31
2023-12-08T18:37:11.179Z,101336.44
2023-12-08T18:39:38.721Z,101359.88
2023-12-08T18:42:07.985Z,101352.97
2023-12-08T18:44:39.792Z,101349.47
2023-12-08T18:47:09.127Z,101334.66
2023-12-08T18:49:38.745Z,101347.81
2023-12-08T18:52:06.207Z,101355.56
2023-12-08T18:54:33.842Z,101317.09
2023-12-08T18:57:05.603Z,101350.31
2023-12-08T18:59:33.590Z,101342.56
2023-12-08T19:02:03.310Z,101319.91
2023-12-08T19:04:32.263Z,101338.28
2023-12-08T19:07:00.027Z,101291.09
2023-12-08T19:09:27.285Z,101340.06
2023-12-08T19:11:54.682Z,101338.28
2023-12-08T19:14:22.122Z,101341.75
2023-12-08T19:16:57.710Z,101325.25
2023-12-08T19:19:25.520Z,101341.75
2023-12-08T19:21:56.637Z,101331.44
2023-12-08T19:24:26.185Z,101344.44
2023-12-08T19:26:53.660Z,101344.41
2023-12-08T19:29:32.417Z,101344.38
2023-12-08T19:31:59.983Z,101337.47
2023-12-08T19:34:27.348Z,101317.38
2023-12-08T19:37:00.214Z,101321.94
2023-12-08T19:39:27.603Z,101317.69
2023-12-08T19:41:54.890Z,101314.13
2023-12-08T19:44:24.401Z,101321.06
2023-12-08T19:46:51.553Z,101324.53
2023-12-08T19:49:18.993Z,101327.13
2023-12-08T19:51:46.857Z,101268.72
2023-12-08T19:54:17.402Z,101334.09
2023-12-08T19:59:31.519Z,101326.25
2023-12-08T20:01:59.020Z,101330.53
2023-12-08T20:04:30.158Z,101322.66
2023-12-08T20:07:05.338Z,101337.50
2023-12-08T20:09:34.555Z,101333.19
2023-12-08T20:12:04.276Z,101346.06
2023-12-08T20:14:37.760Z,101263.47
2023-12-08T20:17:09.647Z,101338.28
2023-12-08T20:19:37.878Z,101334.03
2023-12-08T20:22:05.604Z,101339.97
2023-12-08T20:24:34.923Z,101293.00
2023-12-08T20:27:02.273Z,101263.25
2023-12-08T20:29:29.691Z,101316.66
2023-12-08T20:32:02.007Z,101319.22
2023-12-08T20:34:29.549Z,101326.16
2023-12-08T20:36:57.225Z,101305.22
2023-12-08T20:39:25.006Z,101314.00
2023-12-08T20:41:54.789Z,101324.38
2023-12-08T20:44:26.992Z,101298.94
2023-12-08T20:46:54.530Z,101325.09
2023-12-08T20:49:22.134Z,101333.00
2023-12-08T20:51:49.709Z,101334.72
2023-12-08T20:54:17.643Z,101335.56
2023-12-08T20:56:45.224Z,101328.56
2023-12-08T20:59:15.164Z,101345.06
2023-12-08T21:01:42.945Z,101310.13
2023-12-08T21:04:12.430Z,101333.63
2023-12-08T21:06:39.695Z,101353.66
2023-12-08T21:09:10.199Z,101288.28
2023-12-08T21:11:41.500Z,101306.59
2023-12-08T21:14:09.429Z,101355.38
2023-12-08T21:16:38.506Z,101351.88
2023-12-08T21:19:16.264Z,101362.19
2023-12-08T21:21:45.904Z,101343.00
2023-12-08T21:24:16.220Z,101317.78
2023-12-08T21:26:47.919Z,101345.75
2023-12-08T21:29:19.113Z,101314.34
2023-12-08T21:31:52.758Z,101340.56
2023-12-08T21:34:20.446Z,101355.28
2023-12-08T21:36:47.706Z,101342.34
2023-12-08T21:39:23.137Z,101351.78
2023-12-08T21:41:51.935Z,101354.47
2023-12-08T21:44:19.222Z,101364.78
2023-12-08T21:46:46.658Z,101327.19
2023-12-08T21:49:16.494Z,101376.00
2023-12-08T21:51:43.822Z,101377.66
2023-12-08T21:54:11.488Z,101365.56
2023-12-08T21:56:39.380Z,101373.31
2023-12-08T21:59:06.674Z,101366.44
2023-12-08T22:01:34.050Z,101371.66
2023-12-08T22:04:03.937Z,101372.53
2023-12-08T22:06:35.520Z,101374.28
2023-12-08T22:09:03.555Z,101362.97
2023-12-08T22:11:30.984Z,101360.44
2023-12-08T22:13:59.217Z,101365.63
2023-12-08T22:16:26.471Z,101367.41
2023-12-08T22:18:53.828Z,101368.19
2023-12-08T22:21:22.414Z,101367.34
2023-12-08T22:23:51.156Z,101357.84
2023-12-08T22:26:18.422Z,101357.91
2023-12-08T22:28:45.843Z,101356.13
2023-12-08T22:31:13.061Z,101357.69
2023-12-08T22:33:40.724Z,101357.81
2023-12-08T22:36:13.174Z,101343.03
2023-12-08T22:38:40.587Z,101352.59
2023-12-08T22:41:09.219Z,101355.25
2023-12-08T22:43:36.666Z,101351.69
2023-12-08T22:46:04.621Z,101358.63
2023-12-08T22:48:32.056Z,101336.88
2023-12-08T22:51:07.101Z,101348.19
2023-12-08T22:53:38.338Z,101351.56
2023-12-08T22:56:08.322Z,101339.41
2023-12-08T22:58:37.418Z,101291.50
2023-12-08T23:01:05.691Z,101350.66
2023-12-08T23:03:36.964Z,101359.34
2023-12-08T23:06:05.004Z,101368.84
2023-12-08T23:08:33.507Z,101355.00
2023-12-08T23:11:00.975Z,101273.09
2023-12-08T23:13:28.190Z,101301.91
2023-12-08T23:15:57.183Z,101367.06
2023-12-08T23:18:25.188Z,101364.56
2023-12-08T23:20:52.569Z,101342.00
2023-12-08T23:23:19.836Z,101350.66
2023-12-08T23:25:56.137Z,101305.44
2023-12-08T23:28:23.360Z,101352.38
2023-12-08T23:30:57.726Z,101349.03
2023-12-08T23:33:33.657Z,101343.69
2023-12-08T23:36:01.477Z,101291.47
2023-12-08T23:38:28.867Z,101313.97
2023-12-08T23:40:58.229Z,101361.97
2023-12-08T23:43:26.615Z,101352.28
2023-12-08T23:45:53.813Z,101380.91
2023-12-08T23:48:21.359Z,101372.22
2023-12-08T23:50:50.295Z,101378.34
2023-12-08T23:53:21.101Z,101326.84
2023-12-08T23:55:48.811Z,101373.97
2023-12-08T23:58:16.285Z,101385.22
